Time;durP1;ratioP1;P1;durP2;ratioP2;P2;SDS_P1;SDS_P2;PMS_P1;PMS_P2;Temp;Humidity;BMP_temperature;BMP_pressure;BME280_temperature;BME280_humidity;BME280_pressure;Samples;Min_cycle;Max_cycle;Signal;HPM_P1;HPM_P2
2022/01/30 00:00:51;;;;;;;16.13;4.40;;;8.10;99.90;;;;;;5072948;28;20456;-70
2022/01/30 00:03:18;;;;;;;19.07;5.10;;;8.10;99.90;;;;;;5072836;28;20934;-70
2022/01/30 00:05:44;;;;;;;25.97;5.67;;;8.10;99.90;;;;;;5075078;28;20464;-70
2022/01/30 00:08:11;;;;;;;19.57;5.77;;;8.10;99.90;;;;;;5077607;28;20452;-71
2022/01/30 00:10:40;;;;;;;14.57;4.53;;;8.00;99.90;;;;;;5076954;28;20472;-70
2022/01/30 00:13:08;;;;;;;18.50;4.80;;;8.00;99.90;;;;;;5077086;28;20436;-70
2022/01/30 00:15:41;;;;;;;16.53;5.03;;;7.90;99.90;;;;;;5076957;28;20819;-70
2022/01/30 00:21:02;;;;;;;17.10;3.83;;;8.00;99.90;;;;;;5073944;28;20464;-70
2022/01/30 00:23:31;;;;;;;15.83;5.10;;;8.00;99.90;;;;;;5077627;28;20479;-70
2022/01/30 00:25:59;;;;;;;17.40;6.53;;;7.90;99.90;;;;;;5076773;28;20529;-70
2022/01/30 00:28:27;;;;;;;19.20;4.50;;;7.80;99.90;;;;;;5076879;28;20863;-70
2022/01/30 00:30:55;;;;;;;17.30;4.90;;;7.70;99.90;;;;;;5076678;28;20471;-70
2022/01/30 00:33:22;;;;;;;26.07;5.17;;;7.70;99.90;;;;;;5076424;28;20448;-70
2022/01/30 00:35:49;;;;;;;16.60;5.00;;;7.70;99.90;;;;;;5076687;28;20453;-70
2022/01/30 00:38:21;;;;;;;18.97;4.30;;;7.70;99.90;;;;;;5076599;28;20451;-71
2022/01/30 00:40:49;;;;;;;15.70;5.33;;;7.60;99.90;;;;;;5076573;28;20468;-70
2022/01/30 00:43:16;;;;;;;16.93;4.23;;;7.60;99.90;;;;;;5076340;28;20472;-70
2022/01/30 00:45:43;;;;;;;14.47;4.00;;;7.60;99.90;;;;;;5076200;28;20809;-71
2022/01/30 00:48:11;;;;;;;21.03;4.27;;;7.60;99.90;;;;;;5076302;28;20953;-70
2022/01/30 00:50:38;;;;;;;18.80;5.07;;;7.50;99.90;;;;;;5076761;28;20483;-70
2022/01/30 00:53:06;;;;;;;13.40;4.70;;;7.50;99.90;;;;;;5076515;28;20835;-71
2022/01/30 00:55:33;;;;;;;18.03;6.50;;;7.50;99.90;;;;;;5076358;28;20437;-70
2022/01/30 00:58:02;;;;;;;16.20;4.57;;;7.40;99.90;;;;;;5076199;28;20943;-70
2022/01/30 01:00:30;;;;;;;24.80;6.03;;;7.40;99.90;;;;;;5076348;28;20513;-71
2022/01/30 01:02:56;;;;;;;13.30;4.80;;;7.30;99.90;;;;;;5076234;28;20445;-70
2022/01/30 01:05:24;;;;;;;14.53;4.93;;;7.30;99.90;;;;;;5076254;28;20792;-70
2022/01/30 01:07:54;;;;;;;25.53;4.20;;;7.30;99.90;;;;;;5076027;28;20480;-70
2022/01/30 01:10:30;;;;;;;17.00;4.97;;;7.30;99.90;;;;;;5076045;28;20464;-70
2022/01/30 01:24:05;;;;;;;14.90;4.20;;;7.10;99.90;;;;;;5037127;28;20426;-70
2022/01/30 01:26:32;;;;;;;22.27;5.40;;;7.10;99.90;;;;;;5075762;28;20507;-70
2022/01/30 01:28:59;;;;;;;14.60;4.90;;;7.10;99.90;;;;;;5075618;28;20463;-70
2022/01/30 01:31:27;;;;;;;17.93;4.20;;;7.10;99.90;;;;;;5075674;28;20495;-70
2022/01/30 01:34:20;;;;;;;23.17;4.80;;;7.00;99.90;;;;;;5075663;28;20449;-70
2022/01/30 01:36:48;;;;;;;23.67;4.30;;;7.10;99.90;;;;;;5075304;28;20919;-70
2022/01/30 01:39:15;;;;;;;27.47;6.23;;;7.10;99.90;;;;;;5075445;28;20471;-70
2022/01/30 01:41:42;;;;;;;22.03;6.13;;;7.00;99.90;;;;;;5075458;28;20444;-70
2022/01/30 01:44:16;;;;;;;19.13;5.20;;;6.90;99.90;;;;;;5075119;28;20461;-71
2022/01/30 01:46:44;;;;;;;21.53;4.20;;;6.90;99.90;;;;;;5075328;28;20469;-70
2022/01/30 01:49:18;;;;;;;16.00;4.60;;;7.00;99.90;;;;;;5075263;28;20469;-70
2022/01/30 01:51:49;;;;;;;17.60;5.27;;;7.00;99.90;;;;;;5075253;28;20429;-70
2022/01/30 01:54:17;;;;;;;15.17;4.40;;;6.90;99.90;;;;;;5075319;28;20460;-70
2022/01/30 01:56:44;;;;;;;13.13;4.70;;;6.90;99.90;;;;;;5074907;28;20992;-70
2022/01/30 01:59:12;;;;;;;22.07;6.00;;;6.90;99.90;;;;;;5075062;28;20521;-70
2022/01/30 02:01:38;;;;;;;18.70;4.87;;;6.80;99.90;;;;;;5075020;28;20488;-70
2022/01/30 02:04:05;;;;;;;19.83;6.53;;;6.90;99.90;;;;;;5076066;28;20456;-70
2022/01/30 02:06:32;;;;;;;25.07;4.33;;;6.80;99.90;;;;;;5074685;28;20481;-70
2022/01/30 02:09:06;;;;;;;26.40;5.47;;;6.80;99.90;;;;;;5074835;28;20453;-70
2022/01/30 02:11:38;;;;;;;18.33;5.00;;;6.80;99.90;;;;;;5074917;28;20498;-70
2022/01/30 02:14:28;;;;;;;22.53;5.00;;;6.70;99.90;;;;;;5074898;28;20780;-70
2022/01/30 02:25:27;;;;;;;19.43;5.27;;;6.60;99.90;;;;;;5074406;28;20497;-71
2022/01/30 02:27:57;;;;;;;17.30;4.70;;;6.50;99.90;;;;;;5073322;28;20963;-70
2022/01/30 02:30:30;;;;;;;26.80;5.10;;;6.60;99.90;;;;;;5074467;28;20520;-70
2022/01/30 02:32:57;;;;;;;23.57;4.70;;;6.50;99.90;;;;;;5074450;28;20440;-70
2022/01/30 02:35:24;;;;;;;23.20;4.90;;;6.60;99.90;;;;;;5074104;28;20510;-70
2022/01/30 02:37:54;;;;;;;17.07;4.77;;;6.60;99.90;;;;;;5074639;28;20435;-70
2022/01/30 02:40:21;;;;;;;25.70;5.40;;;6.60;99.90;;;;;;5074263;28;20491;-70
2022/01/30 02:42:51;;;;;;;24.77;5.70;;;6.50;99.90;;;;;;5074056;28;20535;-70
2022/01/30 02:45:19;;;;;;;22.97;4.73;;;6.50;99.90;;;;;;5074249;28;20475;-70
2022/01/30 02:47:56;;;;;;;19.13;4.60;;;6.50;99.90;;;;;;5074048;28;20484;-70
2022/01/30 02:50:35;;;;;;;23.80;5.23;;;6.50;99.90;;;;;;5074026;28;20481;-70
2022/01/30 02:53:07;;;;;;;23.13;4.90;;;6.50;99.90;;;;;;5074015;28;20531;-70
2022/01/30 02:55:34;;;;;;;15.73;4.70;;;6.50;99.90;;;;;;5074048;28;20437;-70
2022/01/30 02:58:01;;;;;;;28.83;6.70;;;6.50;99.90;;;;;;5073987;28;20441;-69
2022/01/30 03:00:28;;;;;;;20.83;4.23;;;6.40;99.90;;;;;;5073872;28;20471;-70
2022/01/30 03:02:55;;;;;;;15.70;5.07;;;6.40;99.90;;;;;;5073914;28;20805;-69
2022/01/30 03:05:22;;;;;;;13.90;4.27;;;6.40;99.90;;;;;;5073863;28;20441;-69
2022/01/30 03:07:49;;;;;;;20.33;5.20;;;6.30;99.90;;;;;;5073532;28;20483;-69
2022/01/30 03:10:17;;;;;;;12.47;4.30;;;6.30;99.90;;;;;;5073487;28;20453;-69
2022/01/30 03:12:44;;;;;;;16.27;5.23;;;6.30;99.90;;;;;;5073748;28;20453;-69
2022/01/30 03:15:12;;;;;;;19.77;5.30;;;6.30;99.90;;;;;;5073400;28;20444;-69
2022/01/30 03:17:40;;;;;;;28.70;5.07;;;6.30;99.90;;;;;;5073538;28;20452;-69
2022/01/30 03:20:08;;;;;;;19.73;5.37;;;6.30;99.90;;;;;;5074397;28;20500;-69
2022/01/30 03:22:35;;;;;;;26.37;5.80;;;6.30;99.90;;;;;;5073481;28;20440;-69
2022/01/30 03:25:02;;;;;;;24.77;5.03;;;6.20;99.90;;;;;;5073533;28;20476;-69
2022/01/30 03:27:30;;;;;;;24.80;4.50;;;6.20;99.90;;;;;;5073489;28;20821;-69
2022/01/30 03:30:03;;;;;;;23.37;5.30;;;6.30;99.90;;;;;;5073492;28;20475;-69
2022/01/30 03:32:30;;;;;;;20.60;5.23;;;6.30;99.90;;;;;;5073542;28;20436;-69
2022/01/30 03:34:56;;;;;;;17.60;4.67;;;6.20;99.90;;;;;;5073521;28;20441;-69
2022/01/30 03:37:23;;;;;;;32.77;4.73;;;6.20;99.90;;;;;;5073466;28;20449;-69
2022/01/30 03:39:50;;;;;;;19.70;4.60;;;6.10;99.90;;;;;;5072983;28;20460;-70
2022/01/30 03:42:17;;;;;;;20.47;4.40;;;6.10;99.90;;;;;;5073416;28;20449;-70
2022/01/30 03:44:45;;;;;;;23.40;5.77;;;6.10;99.90;;;;;;5073251;28;20474;-69
2022/01/30 03:47:11;;;;;;;11.13;3.87;;;6.10;99.90;;;;;;5073855;28;20469;-69
2022/01/30 03:49:39;;;;;;;19.33;4.03;;;6.10;99.90;;;;;;5073300;28;20471;-69
2022/01/30 03:52:07;;;;;;;20.30;4.50;;;6.10;99.90;;;;;;5073357;28;20570;-69
2022/01/30 03:54:34;;;;;;;18.73;4.87;;;6.00;99.90;;;;;;5073302;28;20444;-70
2022/01/30 03:57:01;;;;;;;17.47;4.60;;;6.00;99.90;;;;;;5073270;28;20532;-70
2022/01/30 03:59:28;;;;;;;22.00;5.97;;;6.00;99.90;;;;;;5073216;28;20468;-69
2022/01/30 04:01:56;;;;;;;20.70;4.97;;;5.90;99.90;;;;;;5073317;28;20441;-69
2022/01/30 04:04:22;;;;;;;19.47;3.87;;;5.90;99.90;;;;;;5073285;28;20452;-69
2022/01/30 04:06:50;;;;;;;17.30;4.90;;;6.00;99.90;;;;;;5073089;28;20480;-69
2022/01/30 04:09:17;;;;;;;24.10;5.40;;;6.00;99.90;;;;;;5073070;28;20468;-69
2022/01/30 04:11:44;;;;;;;14.83;5.67;;;6.00;99.90;;;;;;5073137;28;20444;-69
2022/01/30 04:14:11;;;;;;;20.03;5.10;;;6.00;99.90;;;;;;5073070;28;20449;-69
2022/01/30 04:16:39;;;;;;;35.67;7.57;;;5.90;99.90;;;;;;5072789;28;20429;-70
2022/01/30 04:19:08;;;;;;;24.90;4.73;;;5.90;99.90;;;;;;5072988;28;20543;-69
2022/01/30 04:21:35;;;;;;;19.47;4.53;;;5.90;99.90;;;;;;5072779;28;20939;-69
2022/01/30 04:24:02;;;;;;;17.73;4.97;;;5.90;99.90;;;;;;5073082;28;20440;-69
2022/01/30 04:26:28;;;;;;;21.20;4.60;;;5.90;99.90;;;;;;5072756;28;20819;-70
2022/01/30 04:28:56;;;;;;;20.20;4.90;;;5.90;99.90;;;;;;5072955;28;20495;-69
2022/01/30 04:31:23;;;;;;;15.73;4.50;;;5.90;99.90;;;;;;5073093;28;20441;-70
2022/01/30 04:33:50;;;;;;;32.67;6.60;;;5.80;99.90;;;;;;5073113;28;20429;-70
2022/01/30 04:36:24;;;;;;;21.53;4.90;;;5.90;99.90;;;;;;5072962;28;20440;-70
2022/01/30 04:39:01;;;;;;;21.97;4.40;;;5.90;99.90;;;;;;5072933;28;20429;-69
2022/01/30 04:41:53;;;;;;;23.17;6.07;;;6.00;99.90;;;;;;5072921;28;20548;-70
2022/01/30 04:53:06;;;;;;;32.00;4.43;;;6.10;99.90;;;;;;5075724;28;20396;-69
2022/01/30 04:58:22;;;;;;;23.27;5.30;;;6.10;99.90;;;;;;5076119;28;20471;-69
2022/01/30 05:01:00;;;;;;;22.87;4.60;;;6.10;99.90;;;;;;5076172;28;20475;-69
2022/01/30 05:03:37;;;;;;;18.00;4.00;;;6.10;99.90;;;;;;5076259;28;20432;-69
2022/01/30 05:06:07;;;;;;;28.27;5.00;;;6.10;99.90;;;;;;5076205;28;20523;-69
2022/01/30 05:08:36;;;;;;;23.80;4.20;;;6.10;99.90;;;;;;5076056;28;20496;-69
2022/01/30 05:11:06;;;;;;;17.77;4.43;;;6.10;99.90;;;;;;5076030;28;20465;-69
2022/01/30 05:13:35;;;;;;;29.53;4.50;;;6.10;99.90;;;;;;5076063;28;20464;-69
2022/01/30 05:16:03;;;;;;;21.47;4.90;;;6.10;99.90;;;;;;5075921;28;20528;-69
2022/01/30 05:18:30;;;;;;;28.20;4.40;;;6.10;99.90;;;;;;5075972;28;20842;-69
2022/01/30 05:20:58;;;;;;;13.93;4.60;;;6.10;99.90;;;;;;5075783;28;20464;-69
2022/01/30 05:23:25;;;;;;;20.93;4.63;;;6.00;99.90;;;;;;5075892;28;20456;-69
2022/01/30 05:25:53;;;;;;;24.33;4.60;;;6.00;99.90;;;;;;5075724;28;20459;-69
2022/01/30 05:28:23;;;;;;;19.13;5.47;;;6.00;99.90;;;;;;5075701;28;20468;-69
2022/01/30 05:30:51;;;;;;;30.23;5.00;;;5.90;99.90;;;;;;5075607;28;20468;-69
2022/01/30 05:33:18;;;;;;;22.57;4.77;;;6.00;99.90;;;;;;5075691;28;20565;-69
2022/01/30 05:35:45;;;;;;;23.30;4.50;;;5.90;99.90;;;;;;5075617;28;20966;-69
2022/01/30 05:38:12;;;;;;;20.30;5.27;;;5.90;99.90;;;;;;5075620;28;20447;-69
2022/01/30 05:40:40;;;;;;;10.77;4.17;;;5.90;99.90;;;;;;5075485;28;20835;-69
2022/01/30 05:43:08;;;;;;;22.50;4.63;;;5.90;99.90;;;;;;5075051;28;20955;-69
2022/01/30 05:45:39;;;;;;;26.73;5.40;;;5.90;99.90;;;;;;5075478;28;20874;-69
2022/01/30 05:48:10;;;;;;;31.40;4.90;;;5.90;99.90;;;;;;5075316;28;20472;-69
2022/01/30 05:50:38;;;;;;;18.43;3.70;;;5.80;99.90;;;;;;5075369;28;20464;-69
2022/01/30 05:53:05;;;;;;;19.10;4.20;;;5.70;99.90;;;;;;5075000;28;20878;-69
2022/01/30 05:55:32;;;;;;;23.37;4.60;;;5.70;99.90;;;;;;5075309;28;20452;-69
2022/01/30 05:57:59;;;;;;;18.50;5.60;;;5.70;99.90;;;;;;5075191;28;20528;-70
2022/01/30 06:00:27;;;;;;;17.70;5.27;;;5.70;99.90;;;;;;5075201;28;20465;-69
2022/01/30 06:02:54;;;;;;;20.37;5.47;;;5.70;99.90;;;;;;5075291;28;20465;-69
2022/01/30 06:05:23;;;;;;;26.03;4.77;;;5.70;99.90;;;;;;5075137;28;20451;-69
2022/01/30 06:07:52;;;;;;;18.57;4.50;;;5.70;99.90;;;;;;5075050;28;20480;-69
2022/01/30 06:10:20;;;;;;;17.40;5.20;;;5.70;99.90;;;;;;5075023;28;20514;-69
2022/01/30 06:12:47;;;;;;;18.10;5.37;;;5.60;99.90;;;;;;5075418;28;20444;-69
2022/01/30 06:15:14;;;;;;;17.13;4.30;;;5.60;99.90;;;;;;5075163;28;20445;-69
2022/01/30 06:17:43;;;;;;;14.33;4.53;;;5.60;99.90;;;;;;5075075;28;20425;-69
2022/01/30 06:20:11;;;;;;;28.53;4.70;;;5.70;99.90;;;;;;5075020;28;20518;-69
2022/01/30 06:22:38;;;;;;;11.40;3.30;;;5.60;99.90;;;;;;5075053;28;20468;-69
2022/01/30 06:25:06;;;;;;;16.37;4.20;;;5.60;99.90;;;;;;5074951;28;20452;-69
2022/01/30 06:27:32;;;;;;;21.03;4.60;;;5.70;99.90;;;;;;5074836;28;20476;-69
2022/01/30 06:29:59;;;;;;;22.10;5.03;;;5.60;99.90;;;;;;5074721;28;20472;-69
2022/01/30 06:32:26;;;;;;;23.10;4.17;;;5.60;99.90;;;;;;5074835;28;20449;-69
2022/01/30 06:34:55;;;;;;;15.70;4.27;;;5.60;99.90;;;;;;5074968;28;20453;-69
2022/01/30 06:37:22;;;;;;;16.17;4.57;;;5.60;99.90;;;;;;5074708;28;20440;-69
2022/01/30 06:39:48;;;;;;;18.77;4.37;;;5.60;99.90;;;;;;5074561;28;20472;-69
2022/01/30 06:42:15;;;;;;;25.23;4.03;;;5.60;99.90;;;;;;5074570;28;20452;-69
2022/01/30 06:44:44;;;;;;;25.13;5.20;;;5.60;99.90;;;;;;5074136;28;20884;-70
2022/01/30 06:47:11;;;;;;;35.67;5.00;;;5.70;99.90;;;;;;5074466;28;20523;-69
2022/01/30 06:49:38;;;;;;;21.00;3.97;;;5.60;99.90;;;;;;5074538;28;20484;-69
2022/01/30 06:52:09;;;;;;;22.70;4.63;;;5.60;99.90;;;;;;5074230;28;20441;-69
2022/01/30 06:54:37;;;;;;;16.97;4.33;;;5.60;99.90;;;;;;5074269;28;20439;-69
2022/01/30 06:57:05;;;;;;;27.40;6.07;;;5.60;99.90;;;;;;5074050;28;20480;-69
2022/01/30 06:59:31;;;;;;;20.80;3.67;;;5.60;99.90;;;;;;5073582;28;20461;-69
2022/01/30 07:01:58;;;;;;;15.10;3.50;;;5.70;99.90;;;;;;5073952;28;20449;-69
2022/01/30 07:04:25;;;;;;;15.27;4.40;;;5.70;99.90;;;;;;5073918;28;20456;-69
2022/01/30 07:06:51;;;;;;;9.17;3.47;;;5.70;99.90;;;;;;5073630;28;20927;-69
2022/01/30 07:09:19;;;;;;;16.37;4.07;;;5.60;99.90;;;;;;5073745;28;20480;-69
2022/01/30 07:11:46;;;;;;;17.30;5.53;;;5.60;99.90;;;;;;5073592;28;20914;-69
2022/01/30 07:14:13;;;;;;;17.80;5.00;;;5.60;99.90;;;;;;5073346;28;20476;-69
2022/01/30 07:16:40;;;;;;;14.70;4.30;;;5.60;99.90;;;;;;5073734;28;20455;-69
2022/01/30 07:19:06;;;;;;;17.17;3.30;;;5.60;99.90;;;;;;5073688;28;20452;-68
2022/01/30 07:21:33;;;;;;;16.83;3.93;;;5.60;99.90;;;;;;5073725;28;20457;-69
2022/01/30 07:24:00;;;;;;;14.27;4.60;;;5.60;99.90;;;;;;5073518;28;20464;-69
2022/01/30 07:26:28;;;;;;;24.63;4.23;;;5.60;99.90;;;;;;5073156;28;20445;-69
2022/01/30 07:28:55;;;;;;;23.50;5.27;;;5.60;99.90;;;;;;5073528;28;20476;-69
2022/01/30 07:31:21;;;;;;;21.50;6.00;;;5.60;99.90;;;;;;5073491;28;20449;-70
2022/01/30 07:33:48;;;;;;;14.50;3.27;;;5.60;99.90;;;;;;5073537;28;20449;-70
2022/01/30 07:36:15;;;;;;;17.03;4.20;;;5.60;99.90;;;;;;5073470;28;20451;-70
2022/01/30 07:38:43;;;;;;;17.77;4.03;;;5.60;99.90;;;;;;5073499;28;20433;-70
2022/01/30 07:41:10;;;;;;;20.23;4.27;;;5.60;99.90;;;;;;5072945;28;20484;-70
2022/01/30 07:43:38;;;;;;;17.13;3.23;;;5.60;99.90;;;;;;5073197;28;20453;-70
2022/01/30 07:46:06;;;;;;;12.13;3.03;;;5.60;99.90;;;;;;5073358;28;20447;-70
2022/01/30 07:48:33;;;;;;;16.10;4.10;;;5.70;99.90;;;;;;5073281;28;20476;-71
2022/01/30 07:51:00;;;;;;;10.13;5.30;;;5.70;99.90;;;;;;5073086;28;20469;-71
2022/01/30 07:53:27;;;;;;;14.30;4.20;;;5.70;99.90;;;;;;5073062;28;20856;-71
2022/01/30 07:55:54;;;;;;;17.23;3.97;;;5.80;99.90;;;;;;5073007;28;20976;-71
2022/01/30 07:58:21;;;;;;;21.80;4.50;;;5.80;99.90;;;;;;5072988;28;20931;-71
2022/01/30 08:00:49;;;;;;;20.20;5.00;;;5.80;99.90;;;;;;5073095;28;20477;-70
2022/01/30 08:03:16;;;;;;;17.77;4.47;;;5.80;99.90;;;;;;5073416;28;20448;-71
2022/01/30 08:05:42;;;;;;;13.77;3.60;;;5.80;99.90;;;;;;5073563;28;20440;-71
2022/01/30 08:08:09;;;;;;;19.90;4.30;;;5.80;99.90;;;;;;5073297;28;20472;-71
2022/01/30 08:10:36;;;;;;;22.03;3.80;;;5.80;99.90;;;;;;5073223;28;20506;-66
2022/01/30 08:13:03;;;;;;;18.70;4.57;;;5.80;99.90;;;;;;5073103;28;20453;-70
2022/01/30 08:15:30;;;;;;;16.93;3.77;;;5.90;99.90;;;;;;5073076;28;20449;-68
2022/01/30 08:17:58;;;;;;;20.37;4.70;;;6.00;99.90;;;;;;5073054;28;20436;-68
2022/01/30 08:20:27;;;;;;;17.67;3.93;;;6.10;99.90;;;;;;5072956;28;20465;-68
2022/01/30 08:22:55;;;;;;;14.57;4.70;;;6.10;99.90;;;;;;5072669;28;20517;-68
2022/01/30 08:25:23;;;;;;;15.47;4.00;;;6.20;99.90;;;;;;5073070;28;20445;-68
2022/01/30 08:27:51;;;;;;;16.20;3.57;;;6.30;99.90;;;;;;5076518;28;20441;-69
2022/01/30 08:30:17;;;;;;;21.27;3.93;;;6.30;99.90;;;;;;5077454;28;20834;-69
2022/01/30 08:32:46;;;;;;;20.43;6.30;;;6.30;99.90;;;;;;5076959;28;20436;-69
2022/01/30 08:35:16;;;;;;;18.13;4.33;;;6.30;99.90;;;;;;5076822;28;20452;-66
2022/01/30 08:37:43;;;;;;;20.33;4.10;;;6.40;99.90;;;;;;5076865;28;20448;-66
2022/01/30 08:40:13;;;;;;;13.17;4.03;;;6.40;99.90;;;;;;5076528;28;20468;-67
2022/01/30 08:42:39;;;;;;;17.40;4.30;;;6.50;99.90;;;;;;5076374;28;20939;-66
2022/01/30 08:45:09;;;;;;;19.10;5.10;;;6.50;99.90;;;;;;5076460;28;20464;-66
2022/01/30 08:47:36;;;;;;;23.53;4.43;;;6.60;99.90;;;;;;5076543;28;20460;-67
2022/01/30 08:50:04;;;;;;;22.20;4.57;;;6.60;99.90;;;;;;5075994;28;21013;-67
2022/01/30 08:52:32;;;;;;;18.80;4.47;;;6.60;99.90;;;;;;5076382;28;20448;-67
2022/01/30 08:54:58;;;;;;;23.13;4.10;;;6.70;99.90;;;;;;5076390;28;20522;-67
2022/01/30 08:57:25;;;;;;;26.63;3.70;;;6.70;99.90;;;;;;5076292;28;20444;-66
2022/01/30 08:59:53;;;;;;;16.87;4.00;;;6.60;99.90;;;;;;5076193;28;20518;-66
2022/01/30 09:02:20;;;;;;;24.00;5.13;;;6.70;99.90;;;;;;5077106;28;20448;-66
2022/01/30 09:04:47;;;;;;;15.30;3.60;;;6.70;99.90;;;;;;5076148;28;20448;-66
2022/01/30 09:07:14;;;;;;;17.10;4.57;;;6.70;99.90;;;;;;5076221;28;20447;-66
2022/01/30 09:09:42;;;;;;;14.40;3.80;;;6.70;99.90;;;;;;5076059;28;20495;-66
2022/01/30 09:12:09;;;;;;;14.50;3.37;;;6.80;99.90;;;;;;5075774;28;20931;-66
2022/01/30 09:14:39;;;;;;;20.93;3.47;;;6.80;99.90;;;;;;5075696;28;20455;-66
2022/01/30 09:17:11;;;;;;;17.07;4.47;;;6.80;99.90;;;;;;5075848;28;20514;-66
2022/01/30 09:19:38;;;;;;;24.77;4.33;;;6.90;99.90;;;;;;5075992;28;20865;-67
2022/01/30 09:22:05;;;;;;;22.13;4.27;;;7.00;99.90;;;;;;5075588;28;20931;-66
2022/01/30 09:24:32;;;;;;;14.57;4.17;;;7.00;99.90;;;;;;5075853;28;20460;-66
2022/01/30 09:27:00;;;;;;;24.37;4.40;;;7.00;99.90;;;;;;5075803;28;20449;-66
2022/01/30 09:29:28;;;;;;;19.77;3.80;;;7.10;99.90;;;;;;5075642;28;20489;-66
2022/01/30 09:31:55;;;;;;;13.23;3.60;;;7.10;99.90;;;;;;5075582;28;20475;-66
2022/01/30 09:34:22;;;;;;;18.80;3.50;;;7.10;99.90;;;;;;5075266;28;20451;-66
2022/01/30 09:36:49;;;;;;;14.57;3.77;;;7.20;99.90;;;;;;5075230;28;20548;-66
2022/01/30 09:39:15;;;;;;;13.23;3.10;;;7.30;99.90;;;;;;5075491;28;20436;-66
2022/01/30 09:41:43;;;;;;;19.87;3.50;;;7.30;99.90;;;;;;5075204;28;20932;-65
2022/01/30 09:44:12;;;;;;;16.60;4.03;;;7.30;99.90;;;;;;5075110;28;20874;-65
2022/01/30 09:46:41;;;;;;;16.20;3.97;;;7.40;99.90;;;;;;5075460;28;20475;-65
2022/01/30 09:49:09;;;;;;;13.67;3.63;;;7.40;99.90;;;;;;5074945;28;20566;-65
2022/01/30 09:51:37;;;;;;;15.30;4.10;;;7.40;99.90;;;;;;5074944;28;20943;-65
2022/01/30 09:54:04;;;;;;;11.67;3.90;;;7.40;99.90;;;;;;5075257;28;20449;-65
2022/01/30 09:56:31;;;;;;;11.13;3.83;;;7.50;99.90;;;;;;5074898;28;20453;-65
2022/01/30 09:58:58;;;;;;;19.83;4.13;;;7.60;99.90;;;;;;5075133;28;20449;-66
2022/01/30 10:01:30;;;;;;;20.07;6.73;;;7.60;99.90;;;;;;5075104;28;20448;-71
2022/01/30 10:03:57;;;;;;;18.93;3.30;;;7.60;99.90;;;;;;5074842;28;20934;-68
2022/01/30 10:06:29;;;;;;;12.93;3.17;;;7.60;99.90;;;;;;5074973;28;20501;-68
2022/01/30 10:08:57;;;;;;;16.80;3.63;;;7.70;99.90;;;;;;5074777;28;20449;-67
2022/01/30 10:11:29;;;;;;;11.63;3.50;;;7.80;99.90;;;;;;5074701;28;20548;-68
2022/01/30 10:14:04;;;;;;;22.87;4.30;;;7.90;99.90;;;;;;5074794;28;20428;-67
2022/01/30 10:16:36;;;;;;;17.67;4.80;;;8.00;99.60;;;;;;5074781;28;20807;-67
2022/01/30 10:19:09;;;;;;;14.00;3.30;;;8.00;99.50;;;;;;5074636;28;20425;-68
2022/01/30 10:21:36;;;;;;;29.47;3.73;;;8.00;99.10;;;;;;5074699;28;20490;-67
2022/01/30 10:24:21;;;;;;;21.53;3.97;;;8.00;99.40;;;;;;5074615;28;20444;-67
2022/01/30 10:26:48;;;;;;;21.53;5.03;;;7.90;99.10;;;;;;5074527;28;20455;-67
2022/01/30 10:29:23;;;;;;;18.97;4.30;;;7.90;97.90;;;;;;5074351;28;20480;-67
2022/01/30 10:32:05;;;;;;;18.40;4.70;;;8.00;98.10;;;;;;5074220;28;20436;-67
2022/01/30 10:34:33;;;;;;;24.30;5.20;;;7.90;98.20;;;;;;5074491;28;20530;-67
2022/01/30 10:37:14;;;;;;;26.47;5.20;;;8.10;99.30;;;;;;5074432;28;20809;-68
2022/01/30 10:40:06;;;;;;;19.53;4.20;;;8.30;97.80;;;;;;5074300;28;20461;-68
2022/01/30 10:42:38;;;;;;;16.10;4.07;;;8.40;97.60;;;;;;5074364;28;20429;-67
2022/01/30 10:45:14;;;;;;;29.60;5.20;;;8.40;95.70;;;;;;5073909;28;20462;-69
2022/01/30 10:47:44;;;;;;;18.77;4.27;;;8.40;95.70;;;;;;5074233;28;20424;-68
2022/01/30 10:50:14;;;;;;;19.57;5.70;;;8.50;95.90;;;;;;5073667;28;20828;-69
2022/01/30 10:52:57;;;;;;;22.20;5.03;;;8.60;95.10;;;;;;5074193;28;20864;-69
2022/01/30 10:55:36;;;;;;;16.53;4.63;;;8.70;95.20;;;;;;5073707;28;20797;-68
2022/01/30 10:58:04;;;;;;;19.77;4.97;;;8.70;93.80;;;;;;5073955;28;20441;-68
2022/01/30 11:00:38;;;;;;;19.43;4.00;;;8.70;92.90;;;;;;5073502;28;20476;-68
2022/01/30 11:03:07;;;;;;;20.17;4.20;;;8.80;93.60;;;;;;5073754;28;20448;-68
2022/01/30 11:06:09;;;;;;;18.30;4.27;;;8.90;92.80;;;;;;5074686;28;20437;-71
2022/01/30 11:08:39;;;;;;;31.40;5.97;;;9.00;92.50;;;;;;5073328;28;20950;-71
2022/01/30 11:11:13;;;;;;;21.43;5.80;;;9.10;91.70;;;;;;5073805;28;20457;-71
2022/01/30 11:19:15;;;;;;;20.27;4.43;;;9.50;88.90;;;;;;5073613;28;20392;-71
2022/01/30 11:21:42;;;;;;;27.83;5.50;;;9.70;86.10;;;;;;5074148;28;20472;-70
2022/01/30 11:24:10;;;;;;;20.70;4.60;;;9.70;82.50;;;;;;5073656;28;20444;-71
2022/01/30 11:26:38;;;;;;;18.53;5.23;;;10.00;81.10;;;;;;5073655;28;20433;-71
2022/01/30 11:29:07;;;;;;;22.90;5.20;;;10.20;81.20;;;;;;5073502;28;20499;-70
2022/01/30 11:31:36;;;;;;;15.90;4.07;;;10.40;79.30;;;;;;5073582;28;20449;-71
2022/01/30 11:34:03;;;;;;;22.60;6.13;;;10.50;76.80;;;;;;5073287;28;20974;-71
2022/01/30 11:36:32;;;;;;;24.43;5.93;;;10.60;73.30;;;;;;5073622;28;20445;-71
2022/01/30 11:38:59;;;;;;;20.97;4.40;;;10.60;72.40;;;;;;5073680;28;20445;-71
2022/01/30 11:41:26;;;;;;;27.73;7.83;;;10.70;70.70;;;;;;5073644;28;20456;-71
2022/01/30 11:44:25;;;;;;;24.97;5.97;;;10.90;71.80;;;;;;5073608;28;20464;-72
2022/01/30 11:47:18;;;;;;;19.53;5.40;;;11.00;70.60;;;;;;5073507;28;20447;-71
2022/01/30 11:49:50;;;;;;;19.07;4.70;;;11.10;71.20;;;;;;5073516;28;20484;-71
2022/01/30 11:52:19;;;;;;;22.77;4.33;;;11.10;68.90;;;;;;5073439;28;20836;-71
2022/01/30 11:54:47;;;;;;;21.33;7.00;;;11.30;67.30;;;;;;5073435;28;20445;-71
2022/01/30 11:57:45;;;;;;;26.87;5.77;;;11.30;66.50;;;;;;5073147;28;20455;-71
2022/01/30 12:00:38;;;;;;;24.03;4.93;;;11.00;66.20;;;;;;5074369;28;20514;-71
2022/01/30 12:03:26;;;;;;;20.57;5.20;;;10.80;67.30;;;;;;5077423;28;20831;-71
2022/01/30 12:05:53;;;;;;;19.30;4.47;;;10.90;65.90;;;;;;5077346;28;20451;-71
2022/01/30 12:08:45;;;;;;;28.63;6.30;;;11.10;64.20;;;;;;5077312;28;20440;-71
2022/01/30 12:11:49;;;;;;;26.33;5.40;;;11.10;64.50;;;;;;5077222;28;20851;-71
2022/01/30 12:14:54;;;;;;;22.57;6.40;;;11.10;64.90;;;;;;5077171;28;20502;-71
2022/01/30 12:17:57;;;;;;;21.47;4.47;;;11.30;61.90;;;;;;5077211;28;20463;-71
2022/01/30 12:20:25;;;;;;;32.60;7.13;;;11.40;61.70;;;;;;5076655;28;20982;-71
2022/01/30 12:22:52;;;;;;;20.33;4.33;;;11.40;62.10;;;;;;5076997;28;20448;-71
2022/01/30 12:25:34;;;;;;;25.20;6.07;;;11.40;60.90;;;;;;5077025;28;20448;-71
2022/01/30 12:28:11;;;;;;;20.77;4.60;;;11.10;59.00;;;;;;5076960;28;20432;-71
2022/01/30 12:30:49;;;;;;;24.67;5.63;;;11.00;59.60;;;;;;5076464;28;20484;-71
2022/01/30 12:33:42;;;;;;;18.43;5.37;;;10.80;59.20;;;;;;5076863;28;20432;-71
2022/01/30 12:36:21;;;;;;;19.50;6.03;;;10.70;61.20;;;;;;5076489;28;21014;-71
2022/01/30 12:38:54;;;;;;;24.90;4.90;;;10.60;61.90;;;;;;5076682;28;20493;-71
2022/01/30 12:41:24;;;;;;;27.50;5.50;;;10.50;61.90;;;;;;5076601;28;20472;-71
2022/01/30 12:43:53;;;;;;;21.27;5.20;;;10.70;63.60;;;;;;5076599;28;20518;-68
2022/01/30 12:46:22;;;;;;;24.30;4.90;;;10.90;61.20;;;;;;5075923;28;20547;-70
2022/01/30 12:49:17;;;;;;;21.10;5.73;;;11.00;60.30;;;;;;5076597;28;20440;-69
2022/01/30 12:51:48;;;;;;;22.63;4.87;;;10.80;60.20;;;;;;5040995;28;20543;-67
2022/01/30 12:54:18;;;;;;;21.67;5.43;;;11.00;63.80;;;;;;5076434;28;20500;-67
2022/01/30 12:56:47;;;;;;;15.40;4.83;;;11.50;62.30;;;;;;5076100;28;20895;-68
2022/01/30 12:59:16;;;;;;;22.73;4.60;;;11.90;59.40;;;;;;5076248;28;20443;-68
2022/01/30 13:01:44;;;;;;;19.20;5.17;;;12.10;59.00;;;;;;5076181;28;20459;-67
2022/01/30 13:04:13;;;;;;;20.40;5.30;;;12.30;57.50;;;;;;5076239;28;20543;-68
2022/01/30 13:06:41;;;;;;;23.50;4.90;;;12.20;58.00;;;;;;5075854;28;20444;-68
2022/01/30 13:09:09;;;;;;;20.13;5.17;;;12.10;58.80;;;;;;5075817;28;20950;-69
2022/01/30 13:11:36;;;;;;;24.07;4.57;;;11.80;58.80;;;;;;5075097;28;20465;-68
2022/01/30 13:14:06;;;;;;;18.33;5.10;;;11.70;58.40;;;;;;5076114;28;20824;-68
2022/01/30 13:16:40;;;;;;;18.57;4.43;;;11.90;59.20;;;;;;5076043;28;20456;-68
2022/01/30 13:19:09;;;;;;;24.53;6.00;;;12.30;57.50;;;;;;5076022;28;20840;-67
2022/01/30 13:21:38;;;;;;;20.63;6.80;;;12.60;56.20;;;;;;5075889;28;20437;-66
2022/01/30 13:24:06;;;;;;;16.23;4.57;;;13.20;55.70;;;;;;5075551;28;20444;-65
2022/01/30 13:26:38;;;;;;;17.07;4.83;;;13.50;54.00;;;;;;5075798;28;20444;-66
2022/01/30 13:29:13;;;;;;;10.73;3.83;;;13.70;52.00;;;;;;5075779;28;20452;-65
2022/01/30 13:31:41;;;;;;;19.23;4.63;;;13.70;52.00;;;;;;5075677;28;20491;-65
2022/01/30 13:34:17;;;;;;;16.87;4.90;;;13.40;51.20;;;;;;5075732;28;20449;-65
2022/01/30 13:36:52;;;;;;;22.53;4.60;;;13.30;52.90;;;;;;5075678;28;20428;-68
2022/01/30 13:39:25;;;;;;;17.60;4.40;;;13.10;53.60;;;;;;5075280;28;20436;-68